sensor_id;sensor_type;location;lat;lon;timestamp;temperature;humidity
62998;DHT22;55949;52.590;7.330;2022-07-23T00:00:37;16.70;99.90
62998;DHT22;55949;52.590;7.330;2022-07-23T00:01:38;16.70;99.90
62998;DHT22;55949;52.590;7.330;2022-07-23T00:02:38;16.70;99.90
62998;DHT22;55949;52.590;7.330;2022-07-23T00:03:39;16.80;99.90
62998;DHT22;55949;52.590;7.330;2022-07-23T00:04:40;16.90;99.90
62998;DHT22;55949;52.590;7.330;2022-07-23T00:05:40;17.20;99.90
62998;DHT22;55949;52.590;7.330;2022-07-23T00:06:41;17.50;99.90
62998;DHT22;55949;52.590;7.330;2022-07-23T00:07:42;17.50;99.90
62998;DHT22;55949;52.590;7.330;2022-07-23T00:08:43;17.30;99.90
62998;DHT22;55949;52.590;7.330;2022-07-23T00:09:44;17.10;99.90
62998;DHT22;55949;52.590;7.330;2022-07-23T00:10:44;17.00;99.90
62998;DHT22;55949;52.590;7.330;2022-07-23T00:11:45;16.90;99.90
62998;DHT22;55949;52.590;7.330;2022-07-23T00:12:46;17.00;99.90
62998;DHT22;55949;52.590;7.330;2022-07-23T00:13:47;17.30;99.90
62998;DHT22;55949;52.590;7.330;2022-07-23T00:14:48;17.60;99.90
62998;DHT22;55949;52.590;7.330;2022-07-23T00:15:48;17.70;99.90
62998;DHT22;55949;52.590;7.330;2022-07-23T00:16:49;17.60;99.90
62998;DHT22;55949;52.590;7.330;2022-07-23T00:17:50;17.40;99.90
62998;DHT22;55949;52.590;7.330;2022-07-23T00:18:51;17.20;99.90
62998;DHT22;55949;52.590;7.330;2022-07-23T00:19:52;17.00;99.90
62998;DHT22;55949;52.590;7.330;2022-07-23T00:20:54;16.90;99.90
62998;DHT22;55949;52.590;7.330;2022-07-23T00:21:54;16.90;99.90
62998;DHT22;55949;52.590;7.330;2022-07-23T00:22:55;17.00;99.90
62998;DHT22;55949;52.590;7.330;2022-07-23T00:23:56;16.90;99.90
62998;DHT22;55949;52.590;7.330;2022-07-23T00:24:56;16.80;99.90
62998;DHT22;55949;52.590;7.330;2022-07-23T00:25:57;16.70;99.90
62998;DHT22;55949;52.590;7.330;2022-07-23T00:26:58;17.00;99.90
62998;DHT22;55949;52.590;7.330;2022-07-23T00:28:00;17.10;99.90
62998;DHT22;55949;52.590;7.330;2022-07-23T00:29:01;17.30;99.90
62998;DHT22;55949;52.590;7.330;2022-07-23T00:30:02;17.50;99.90
62998;DHT22;55949;52.590;7.330;2022-07-23T00:31:03;17.70;99.90
62998;DHT22;55949;52.590;7.330;2022-07-23T00:32:04;17.90;99.90
62998;DHT22;55949;52.590;7.330;2022-07-23T00:33:06;17.60;99.90
62998;DHT22;55949;52.590;7.330;2022-07-23T00:34:07;17.40;99.90
62998;DHT22;55949;52.590;7.330;2022-07-23T00:35:08;17.30;99.90
62998;DHT22;55949;52.590;7.330;2022-07-23T00:36:09;17.40;99.90
62998;DHT22;55949;52.590;7.330;2022-07-23T00:37:10;17.60;99.90
62998;DHT22;55949;52.590;7.330;2022-07-23T00:38:11;17.70;99.90
62998;DHT22;55949;52.590;7.330;2022-07-23T00:39:12;17.80;99.90
62998;DHT22;55949;52.590;7.330;2022-07-23T00:40:13;17.70;99.90
62998;DHT22;55949;52.590;7.330;2022-07-23T00:41:15;17.70;99.90
62998;DHT22;55949;52.590;7.330;2022-07-23T00:42:15;17.60;99.90
62998;DHT22;55949;52.590;7.330;2022-07-23T00:43:16;17.40;99.90
62998;DHT22;55949;52.590;7.330;2022-07-23T00:44:23;17.30;99.90
62998;DHT22;55949;52.590;7.330;2022-07-23T00:45:24;17.10;99.90
62998;DHT22;55949;52.590;7.330;2022-07-23T00:46:24;17.10;99.90
62998;DHT22;55949;52.590;7.330;2022-07-23T00:47:25;17.00;99.90
62998;DHT22;55949;52.590;7.330;2022-07-23T00:48:26;16.90;99.90
62998;DHT22;55949;52.590;7.330;2022-07-23T00:49:29;16.70;99.90
62998;DHT22;55949;52.590;7.330;2022-07-23T00:50:30;16.70;99.90
62998;DHT22;55949;52.590;7.330;2022-07-23T00:51:31;16.70;99.90
62998;DHT22;55949;52.590;7.330;2022-07-23T00:52:34;16.60;99.90
62998;DHT22;55949;52.590;7.330;2022-07-23T00:53:35;16.60;99.90
62998;DHT22;55949;52.590;7.330;2022-07-23T00:54:36;16.50;99.90
62998;DHT22;55949;52.590;7.330;2022-07-23T00:55:37;16.40;99.90
62998;DHT22;55949;52.590;7.330;2022-07-23T00:56:39;16.40;99.90
62998;DHT22;55949;52.590;7.330;2022-07-23T00:57:41;16.50;99.90
62998;DHT22;55949;52.590;7.330;2022-07-23T00:58:42;16.50;99.90
62998;DHT22;55949;52.590;7.330;2022-07-23T00:59:44;16.30;99.90
62998;DHT22;55949;52.590;7.330;2022-07-23T01:00:45;16.40;99.90
62998;DHT22;55949;52.590;7.330;2022-07-23T01:01:46;16.70;99.90
62998;DHT22;55949;52.590;7.330;2022-07-23T01:02:49;16.70;99.90
62998;DHT22;55949;52.590;7.330;2022-07-23T01:03:50;16.70;99.90
62998;DHT22;55949;52.590;7.330;2022-07-23T01:04:51;16.50;99.90
62998;DHT22;55949;52.590;7.330;2022-07-23T01:05:52;16.60;99.90
62998;DHT22;55949;52.590;7.330;2022-07-23T01:06:53;16.40;99.90
62998;DHT22;55949;52.590;7.330;2022-07-23T01:07:54;16.30;99.90
62998;DHT22;55949;52.590;7.330;2022-07-23T01:08:55;16.10;99.90
62998;DHT22;55949;52.590;7.330;2022-07-23T01:09:56;16.10;99.90
62998;DHT22;55949;52.590;7.330;2022-07-23T01:10:57;16.10;99.90
62998;DHT22;55949;52.590;7.330;2022-07-23T01:11:59;16.30;99.90
62998;DHT22;55949;52.590;7.330;2022-07-23T01:13:06;16.40;99.90
62998;DHT22;55949;52.590;7.330;2022-07-23T01:14:12;16.40;99.90
62998;DHT22;55949;52.590;7.330;2022-07-23T01:15:13;16.60;99.90
62998;DHT22;55949;52.590;7.330;2022-07-23T01:16:13;16.50;99.90
62998;DHT22;55949;52.590;7.330;2022-07-23T01:17:14;16.70;99.90
62998;DHT22;55949;52.590;7.330;2022-07-23T01:18:15;16.70;99.90
62998;DHT22;55949;52.590;7.330;2022-07-23T01:19:16;16.60;99.90
62998;DHT22;55949;52.590;7.330;2022-07-23T01:20:18;16.60;99.90
62998;DHT22;55949;52.590;7.330;2022-07-23T01:21:19;16.80;99.90
62998;DHT22;55949;52.590;7.330;2022-07-23T01:22:20;17.00;99.90
62998;DHT22;55949;52.590;7.330;2022-07-23T01:23:20;16.80;99.90
62998;DHT22;55949;52.590;7.330;2022-07-23T01:24:21;16.50;99.90
62998;DHT22;55949;52.590;7.330;2022-07-23T01:25:23;16.40;99.90
62998;DHT22;55949;52.590;7.330;2022-07-23T01:26:23;16.20;99.90
62998;DHT22;55949;52.590;7.330;2022-07-23T01:27:24;16.00;99.90
62998;DHT22;55949;52.590;7.330;2022-07-23T01:28:25;15.90;99.90
62998;DHT22;55949;52.590;7.330;2022-07-23T01:29:26;15.80;99.90
62998;DHT22;55949;52.590;7.330;2022-07-23T01:30:26;15.70;99.90
62998;DHT22;55949;52.590;7.330;2022-07-23T01:31:28;15.60;99.90
62998;DHT22;55949;52.590;7.330;2022-07-23T01:32:29;15.50;99.90
62998;DHT22;55949;52.590;7.330;2022-07-23T01:33:30;15.40;99.90
62998;DHT22;55949;52.590;7.330;2022-07-23T01:34:30;15.30;99.90
62998;DHT22;55949;52.590;7.330;2022-07-23T01:35:31;15.20;99.90
62998;DHT22;55949;52.590;7.330;2022-07-23T01:36:32;15.20;99.90
62998;DHT22;55949;52.590;7.330;2022-07-23T01:37:33;15.20;99.90
62998;DHT22;55949;52.590;7.330;2022-07-23T01:38:34;15.20;99.90
62998;DHT22;55949;52.590;7.330;2022-07-23T01:39:35;15.20;99.90
62998;DHT22;55949;52.590;7.330;2022-07-23T01:40:35;15.10;99.90
62998;DHT22;55949;52.590;7.330;2022-07-23T01:41:36;15.00;99.90
62998;DHT22;55949;52.590;7.330;2022-07-23T01:42:37;14.90;99.90
62998;DHT22;55949;52.590;7.330;2022-07-23T01:43:38;14.90;99.90
62998;DHT22;55949;52.590;7.330;2022-07-23T01:44:38;14.80;99.90
62998;DHT22;55949;52.590;7.330;2022-07-23T01:45:39;14.80;99.90
62998;DHT22;55949;52.590;7.330;2022-07-23T01:46:40;14.80;99.90
62998;DHT22;55949;52.590;7.330;2022-07-23T01:47:41;14.90;99.90
62998;DHT22;55949;52.590;7.330;2022-07-23T01:48:42;15.30;99.90
62998;DHT22;55949;52.590;7.330;2022-07-23T01:49:42;15.30;99.90
62998;DHT22;55949;52.590;7.330;2022-07-23T01:50:43;15.50;99.90
62998;DHT22;55949;52.590;7.330;2022-07-23T01:51:44;15.80;99.90
62998;DHT22;55949;52.590;7.330;2022-07-23T01:53:00;16.00;99.90
62998;DHT22;55949;52.590;7.330;2022-07-23T01:54:01;16.00;99.90
62998;DHT22;55949;52.590;7.330;2022-07-23T01:55:01;16.30;99.90
62998;DHT22;55949;52.590;7.330;2022-07-23T01:56:02;16.50;99.90
62998;DHT22;55949;52.590;7.330;2022-07-23T01:57:04;16.60;99.90
62998;DHT22;55949;52.590;7.330;2022-07-23T01:58:04;16.70;99.90
62998;DHT22;55949;52.590;7.330;2022-07-23T01:59:05;16.70;99.90
62998;DHT22;55949;52.590;7.330;2022-07-23T02:00:07;16.70;99.90
62998;DHT22;55949;52.590;7.330;2022-07-23T02:01:08;16.70;99.90
62998;DHT22;55949;52.590;7.330;2022-07-23T02:02:08;16.80;99.90
62998;DHT22;55949;52.590;7.330;2022-07-23T02:03:09;16.70;99.90
62998;DHT22;55949;52.590;7.330;2022-07-23T02:04:10;16.50;99.90
62998;DHT22;55949;52.590;7.330;2022-07-23T02:05:10;16.30;99.90
62998;DHT22;55949;52.590;7.330;2022-07-23T02:06:11;16.30;99.90
62998;DHT22;55949;52.590;7.330;2022-07-23T02:07:12;16.40;99.90
62998;DHT22;55949;52.590;7.330;2022-07-23T02:08:13;16.50;99.90
62998;DHT22;55949;52.590;7.330;2022-07-23T02:09:14;16.40;99.90
62998;DHT22;55949;52.590;7.330;2022-07-23T02:10:15;16.40;99.90
62998;DHT22;55949;52.590;7.330;2022-07-23T02:11:15;16.30;99.90
62998;DHT22;55949;52.590;7.330;2022-07-23T02:12:16;16.30;99.90
62998;DHT22;55949;52.590;7.330;2022-07-23T02:13:17;16.30;99.90
62998;DHT22;55949;52.590;7.330;2022-07-23T02:14:18;16.10;99.90
62998;DHT22;55949;52.590;7.330;2022-07-23T02:15:19;15.90;99.90
62998;DHT22;55949;52.590;7.330;2022-07-23T02:16:20;15.90;99.90
62998;DHT22;55949;52.590;7.330;2022-07-23T02:17:21;15.80;99.90
62998;DHT22;55949;52.590;7.330;2022-07-23T02:18:22;15.80;99.90
62998;DHT22;55949;52.590;7.330;2022-07-23T02:19:22;15.70;99.90
62998;DHT22;55949;52.590;7.330;2022-07-23T02:20:23;15.70;99.90
62998;DHT22;55949;52.590;7.330;2022-07-23T02:21:25;15.70;99.90
62998;DHT22;55949;52.590;7.330;2022-07-23T02:22:25;16.00;99.90
62998;DHT22;55949;52.590;7.330;2022-07-23T02:23:26;15.90;99.90
62998;DHT22;55949;52.590;7.330;2022-07-23T02:24:27;15.90;99.90
62998;DHT22;55949;52.590;7.330;2022-07-23T02:25:28;15.90;99.90
62998;DHT22;55949;52.590;7.330;2022-07-23T02:26:29;16.10;99.90
62998;DHT22;55949;52.590;7.330;2022-07-23T02:27:29;16.20;99.90
62998;DHT22;55949;52.590;7.330;2022-07-23T02:28:30;16.30;99.90
62998;DHT22;55949;52.590;7.330;2022-07-23T02:29:31;16.00;99.90
62998;DHT22;55949;52.590;7.330;2022-07-23T02:30:31;15.80;99.90
62998;DHT22;55949;52.590;7.330;2022-07-23T02:31:33;15.70;99.90
62998;DHT22;55949;52.590;7.330;2022-07-23T02:32:34;15.60;99.90
62998;DHT22;55949;52.590;7.330;2022-07-23T02:33:35;15.70;99.90
62998;DHT22;55949;52.590;7.330;2022-07-23T02:34:36;15.90;99.90
62998;DHT22;55949;52.590;7.330;2022-07-23T02:35:36;15.70;99.90
62998;DHT22;55949;52.590;7.330;2022-07-23T02:36:38;15.70;99.90
62998;DHT22;55949;52.590;7.330;2022-07-23T02:37:39;15.60;99.90
62998;DHT22;55949;52.590;7.330;2022-07-23T02:38:40;15.60;99.90
62998;DHT22;55949;52.590;7.330;2022-07-23T02:39:41;15.80;99.90
62998;DHT22;55949;52.590;7.330;2022-07-23T02:40:41;16.00;99.90
62998;DHT22;55949;52.590;7.330;2022-07-23T02:41:42;16.00;99.90
62998;DHT22;55949;52.590;7.330;2022-07-23T02:42:43;15.90;99.90
62998;DHT22;55949;52.590;7.330;2022-07-23T02:43:44;15.70;99.90
62998;DHT22;55949;52.590;7.330;2022-07-23T02:44:45;15.40;99.90
62998;DHT22;55949;52.590;7.330;2022-07-23T02:45:45;15.20;99.90
62998;DHT22;55949;52.590;7.330;2022-07-23T02:46:46;15.10;99.90
62998;DHT22;55949;52.590;7.330;2022-07-23T02:47:47;15.00;99.90
62998;DHT22;55949;52.590;7.330;2022-07-23T02:48:47;15.00;99.90
62998;DHT22;55949;52.590;7.330;2022-07-23T02:49:48;14.90;99.90
62998;DHT22;55949;52.590;7.330;2022-07-23T02:50:49;15.10;99.90
62998;DHT22;55949;52.590;7.330;2022-07-23T02:51:50;15.40;99.90
62998;DHT22;55949;52.590;7.330;2022-07-23T02:52:51;15.30;99.90
62998;DHT22;55949;52.590;7.330;2022-07-23T02:53:51;15.20;99.90
62998;DHT22;55949;52.590;7.330;2022-07-23T02:54:52;15.10;99.90
62998;DHT22;55949;52.590;7.330;2022-07-23T02:55:53;15.10;99.90
62998;DHT22;55949;52.590;7.330;2022-07-23T02:56:53;15.10;99.90
62998;DHT22;55949;52.590;7.330;2022-07-23T02:57:54;15.10;99.90
62998;DHT22;55949;52.590;7.330;2022-07-23T02:58:55;15.10;99.90
62998;DHT22;55949;52.590;7.330;2022-07-23T02:59:56;15.10;99.90
62998;DHT22;55949;52.590;7.330;2022-07-23T03:00:56;15.30;99.90
62998;DHT22;55949;52.590;7.330;2022-07-23T03:01:57;15.60;99.90
62998;DHT22;55949;52.590;7.330;2022-07-23T03:02:58;15.60;99.90
62998;DHT22;55949;52.590;7.330;2022-07-23T03:03:58;15.60;99.90
62998;DHT22;55949;52.590;7.330;2022-07-23T03:04:59;15.50;99.90
62998;DHT22;55949;52.590;7.330;2022-07-23T03:06:00;15.30;99.90
62998;DHT22;55949;52.590;7.330;2022-07-23T03:07:00;15.10;99.90
62998;DHT22;55949;52.590;7.330;2022-07-23T03:08:01;15.00;99.90
62998;DHT22;55949;52.590;7.330;2022-07-23T03:09:03;14.90;99.90
62998;DHT22;55949;52.590;7.330;2022-07-23T03:10:04;14.80;99.90
62998;DHT22;55949;52.590;7.330;2022-07-23T03:11:04;14.80;99.90
62998;DHT22;55949;52.590;7.330;2022-07-23T03:12:11;14.70;99.90
62998;DHT22;55949;52.590;7.330;2022-07-23T03:13:12;14.80;99.90
62998;DHT22;55949;52.590;7.330;2022-07-23T03:14:12;15.00;99.90
62998;DHT22;55949;52.590;7.330;2022-07-23T03:15:14;15.00;99.90
62998;DHT22;55949;52.590;7.330;2022-07-23T03:16:15;14.90;99.90
62998;DHT22;55949;52.590;7.330;2022-07-23T03:17:15;14.70;99.90
62998;DHT22;55949;52.590;7.330;2022-07-23T03:18:16;14.50;99.90
62998;DHT22;55949;52.590;7.330;2022-07-23T03:19:17;14.40;99.90
62998;DHT22;55949;52.590;7.330;2022-07-23T03:20:18;14.40;99.90
62998;DHT22;55949;52.590;7.330;2022-07-23T03:21:18;14.30;99.90
62998;DHT22;55949;52.590;7.330;2022-07-23T03:22:19;14.30;99.90
62998;DHT22;55949;52.590;7.330;2022-07-23T03:23:20;14.30;99.90
62998;DHT22;55949;52.590;7.330;2022-07-23T03:24:21;14.20;99.90
62998;DHT22;55949;52.590;7.330;2022-07-23T03:25:24;14.40;99.90
62998;DHT22;55949;52.590;7.330;2022-07-23T03:26:24;14.70;99.90
62998;DHT22;55949;52.590;7.330;2022-07-23T03:27:28;14.90;99.90
62998;DHT22;55949;52.590;7.330;2022-07-23T03:28:29;15.10;99.90
62998;DHT22;55949;52.590;7.330;2022-07-23T03:29:29;15.30;99.90
62998;DHT22;55949;52.590;7.330;2022-07-23T03:30:31;15.20;99.90
62998;DHT22;55949;52.590;7.330;2022-07-23T03:31:31;15.10;99.90
62998;DHT22;55949;52.590;7.330;2022-07-23T03:32:32;15.40;99.90
62998;DHT22;55949;52.590;7.330;2022-07-23T03:33:33;15.70;99.90
62998;DHT22;55949;52.590;7.330;2022-07-23T03:34:34;15.70;99.90
62998;DHT22;55949;52.590;7.330;2022-07-23T03:35:34;15.80;99.90
62998;DHT22;55949;52.590;7.330;2022-07-23T03:36:35;15.90;99.90
62998;DHT22;55949;52.590;7.330;2022-07-23T03:37:36;15.80;99.90
62998;DHT22;55949;52.590;7.330;2022-07-23T03:38:36;15.60;99.90
62998;DHT22;55949;52.590;7.330;2022-07-23T03:39:37;15.50;99.90
62998;DHT22;55949;52.590;7.330;2022-07-23T03:40:38;15.50;99.90
62998;DHT22;55949;52.590;7.330;2022-07-23T03:41:39;15.40;99.90
62998;DHT22;55949;52.590;7.330;2022-07-23T03:42:40;15.20;99.90
62998;DHT22;55949;52.590;7.330;2022-07-23T03:43:42;15.10;99.90
62998;DHT22;55949;52.590;7.330;2022-07-23T03:44:43;14.90;99.90
62998;DHT22;55949;52.590;7.330;2022-07-23T03:45:43;15.00;99.90
62998;DHT22;55949;52.590;7.330;2022-07-23T03:46:44;14.90;99.90
62998;DHT22;55949;52.590;7.330;2022-07-23T03:47:45;15.00;99.90
62998;DHT22;55949;52.590;7.330;2022-07-23T03:48:46;15.10;99.90
62998;DHT22;55949;52.590;7.330;2022-07-23T03:49:46;15.10;99.90
62998;DHT22;55949;52.590;7.330;2022-07-23T03:50:47;15.10;99.90
62998;DHT22;55949;52.590;7.330;2022-07-23T03:51:48;15.20;99.90
62998;DHT22;55949;52.590;7.330;2022-07-23T03:52:49;15.10;99.90
62998;DHT22;55949;52.590;7.330;2022-07-23T03:53:49;15.00;99.90
62998;DHT22;55949;52.590;7.330;2022-07-23T03:54:50;14.90;99.90
62998;DHT22;55949;52.590;7.330;2022-07-23T03:55:51;14.80;99.90
62998;DHT22;55949;52.590;7.330;2022-07-23T03:56:52;14.80;99.90
62998;DHT22;55949;52.590;7.330;2022-07-23T03:57:52;14.70;99.90
62998;DHT22;55949;52.590;7.330;2022-07-23T03:58:53;14.70;99.90
62998;DHT22;55949;52.590;7.330;2022-07-23T03:59:54;14.90;99.90
62998;DHT22;55949;52.590;7.330;2022-07-23T04:00:54;15.20;99.90
62998;DHT22;55949;52.590;7.330;2022-07-23T04:01:55;15.20;99.90
62998;DHT22;55949;52.590;7.330;2022-07-23T04:02:56;15.10;99.90
62998;DHT22;55949;52.590;7.330;2022-07-23T04:03:57;15.00;99.90
62998;DHT22;55949;52.590;7.330;2022-07-23T04:04:57;14.90;99.90
62998;DHT22;55949;52.590;7.330;2022-07-23T04:05:59;14.90;99.90
62998;DHT22;55949;52.590;7.330;2022-07-23T04:07:00;14.90;99.90
62998;DHT22;55949;52.590;7.330;2022-07-23T04:08:01;15.00;99.90
62998;DHT22;55949;52.590;7.330;2022-07-23T04:09:02;15.00;99.90
62998;DHT22;55949;52.590;7.330;2022-07-23T04:10:03;15.30;99.90
62998;DHT22;55949;52.590;7.330;2022-07-23T04:11:04;15.50;99.90
62998;DHT22;55949;52.590;7.330;2022-07-23T04:12:06;15.70;99.90
62998;DHT22;55949;52.590;7.330;2022-07-23T04:13:06;15.70;99.90
62998;DHT22;55949;52.590;7.330;2022-07-23T04:14:07;15.70;99.90
62998;DHT22;55949;52.590;7.330;2022-07-23T04:15:08;15.60;99.90
62998;DHT22;55949;52.590;7.330;2022-07-23T04:16:09;15.70;99.90
62998;DHT22;55949;52.590;7.330;2022-07-23T04:17:11;15.60;99.90
62998;DHT22;55949;52.590;7.330;2022-07-23T04:18:12;15.50;99.90
62998;DHT22;55949;52.590;7.330;2022-07-23T04:19:12;15.40;99.90
62998;DHT22;55949;52.590;7.330;2022-07-23T04:20:13;15.40;99.90
62998;DHT22;55949;52.590;7.330;2022-07-23T04:21:14;15.30;99.90
62998;DHT22;55949;52.590;7.330;2022-07-23T04:22:14;15.20;99.90
62998;DHT22;55949;52.590;7.330;2022-07-23T04:23:15;15.10;99.90
62998;DHT22;55949;52.590;7.330;2022-07-23T04:24:16;15.00;99.90
62998;DHT22;55949;52.590;7.330;2022-07-23T04:25:16;15.00;99.90
62998;DHT22;55949;52.590;7.330;2022-07-23T04:26:17;15.00;99.90
62998;DHT22;55949;52.590;7.330;2022-07-23T04:27:19;15.10;99.90
62998;DHT22;55949;52.590;7.330;2022-07-23T04:28:19;15.10;99.90
62998;DHT22;55949;52.590;7.330;2022-07-23T04:29:20;15.20;99.90
62998;DHT22;55949;52.590;7.330;2022-07-23T04:30:21;15.10;99.90
62998;DHT22;55949;52.590;7.330;2022-07-23T04:31:22;15.00;99.90
62998;DHT22;55949;52.590;7.330;2022-07-23T04:32:22;15.30;99.90
62998;DHT22;55949;52.590;7.330;2022-07-23T04:33:23;15.50;99.90
62998;DHT22;55949;52.590;7.330;2022-07-23T04:34:24;15.50;99.90
62998;DHT22;55949;52.590;7.330;2022-07-23T04:35:27;15.40;99.90
62998;DHT22;55949;52.590;7.330;2022-07-23T04:36:27;15.40;99.90
62998;DHT22;55949;52.590;7.330;2022-07-23T04:37:28;15.50;99.90
62998;DHT22;55949;52.590;7.330;2022-07-23T04:38:29;15.40;99.90
62998;DHT22;55949;52.590;7.330;2022-07-23T04:39:30;15.40;99.90
62998;DHT22;55949;52.590;7.330;2022-07-23T04:40:31;15.30;99.90
62998;DHT22;55949;52.590;7.330;2022-07-23T04:41:32;15.20;99.90
62998;DHT22;55949;52.590;7.330;2022-07-23T04:42:33;15.20;99.90
62998;DHT22;55949;52.590;7.330;2022-07-23T04:43:33;15.10;99.90
62998;DHT22;55949;52.590;7.330;2022-07-23T04:44:34;15.10;99.90
62998;DHT22;55949;52.590;7.330;2022-07-23T04:45:35;15.00;99.90
62998;DHT22;55949;52.590;7.330;2022-07-23T04:46:35;15.00;99.90
62998;DHT22;55949;52.590;7.330;2022-07-23T04:47:36;14.90;99.90
62998;DHT22;55949;52.590;7.330;2022-07-23T04:48:37;14.90;99.90
62998;DHT22;55949;52.590;7.330;2022-07-23T04:49:37;14.90;99.90
62998;DHT22;55949;52.590;7.330;2022-07-23T04:50:38;15.00;99.90
62998;DHT22;55949;52.590;7.330;2022-07-23T04:51:39;15.20;99.90
62998;DHT22;55949;52.590;7.330;2022-07-23T04:52:40;15.50;99.90
62998;DHT22;55949;52.590;7.330;2022-07-23T04:53:41;15.70;99.90
62998;DHT22;55949;52.590;7.330;2022-07-23T04:54:41;16.00;99.90
62998;DHT22;55949;52.590;7.330;2022-07-23T04:55:42;16.20;99.90
62998;DHT22;55949;52.590;7.330;2022-07-23T04:56:43;16.20;99.90
62998;DHT22;55949;52.590;7.330;2022-07-23T04:57:44;16.40;99.90
62998;DHT22;55949;52.590;7.330;2022-07-23T04:58:44;16.60;99.90
62998;DHT22;55949;52.590;7.330;2022-07-23T04:59:45;16.60;99.90
62998;DHT22;55949;52.590;7.330;2022-07-23T05:00:46;16.70;99.90
62998;DHT22;55949;52.590;7.330;2022-07-23T05:01:47;16.50;99.90
62998;DHT22;55949;52.590;7.330;2022-07-23T05:02:48;16.50;99.90
62998;DHT22;55949;52.590;7.330;2022-07-23T05:03:48;16.60;99.90
62998;DHT22;55949;52.590;7.330;2022-07-23T05:04:49;16.60;99.90
62998;DHT22;55949;52.590;7.330;2022-07-23T05:05:50;16.60;99.90
62998;DHT22;55949;52.590;7.330;2022-07-23T05:06:51;16.50;99.90
62998;DHT22;55949;52.590;7.330;2022-07-23T05:07:51;16.50;99.90
62998;DHT22;55949;52.590;7.330;2022-07-23T05:08:52;16.80;99.90
62998;DHT22;55949;52.590;7.330;2022-07-23T05:09:53;16.90;99.90
62998;DHT22;55949;52.590;7.330;2022-07-23T05:10:54;17.10;99.90
62998;DHT22;55949;52.590;7.330;2022-07-23T05:11:54;17.30;99.90
62998;DHT22;55949;52.590;7.330;2022-07-23T05:12:55;17.30;99.90
62998;DHT22;55949;52.590;7.330;2022-07-23T05:13:56;17.00;99.90
62998;DHT22;55949;52.590;7.330;2022-07-23T05:14:56;16.80;99.90
62998;DHT22;55949;52.590;7.330;2022-07-23T05:15:57;16.80;99.90
62998;DHT22;55949;52.590;7.330;2022-07-23T05:16:58;16.70;99.90
62998;DHT22;55949;52.590;7.330;2022-07-23T05:17:59;16.40;99.90
62998;DHT22;55949;52.590;7.330;2022-07-23T05:18:59;15.90;99.90
62998;DHT22;55949;52.590;7.330;2022-07-23T05:20:00;15.70;99.90
62998;DHT22;55949;52.590;7.330;2022-07-23T05:21:01;16.00;99.90
62998;DHT22;55949;52.590;7.330;2022-07-23T05:22:02;15.90;99.90
62998;DHT22;55949;52.590;7.330;2022-07-23T05:23:03;15.80;99.90
62998;DHT22;55949;52.590;7.330;2022-07-23T05:24:04;15.80;99.90
62998;DHT22;55949;52.590;7.330;2022-07-23T05:25:05;15.50;99.90
62998;DHT22;55949;52.590;7.330;2022-07-23T05:26:06;15.30;99.90
62998;DHT22;55949;52.590;7.330;2022-07-23T05:27:07;15.20;99.90
62998;DHT22;55949;52.590;7.330;2022-07-23T05:28:08;15.30;99.90
62998;DHT22;55949;52.590;7.330;2022-07-23T05:29:09;15.20;99.90
62998;DHT22;55949;52.590;7.330;2022-07-23T05:30:10;15.30;99.90
62998;DHT22;55949;52.590;7.330;2022-07-23T05:31:11;15.50;99.90
62998;DHT22;55949;52.590;7.330;2022-07-23T05:32:12;15.70;99.90
62998;DHT22;55949;52.590;7.330;2022-07-23T05:33:12;16.00;99.90
62998;DHT22;55949;52.590;7.330;2022-07-23T05:34:13;15.80;99.90
62998;DHT22;55949;52.590;7.330;2022-07-23T05:35:14;15.80;99.90
62998;DHT22;55949;52.590;7.330;2022-07-23T05:36:14;15.90;99.90
62998;DHT22;55949;52.590;7.330;2022-07-23T05:37:16;16.00;99.90
62998;DHT22;55949;52.590;7.330;2022-07-23T05:38:16;16.20;99.90
62998;DHT22;55949;52.590;7.330;2022-07-23T05:39:17;16.20;99.90
62998;DHT22;55949;52.590;7.330;2022-07-23T05:40:18;16.30;99.90
62998;DHT22;55949;52.590;7.330;2022-07-23T05:41:19;16.50;99.90
62998;DHT22;55949;52.590;7.330;2022-07-23T05:42:19;16.60;99.90
62998;DHT22;55949;52.590;7.330;2022-07-23T05:43:20;16.80;99.90
62998;DHT22;55949;52.590;7.330;2022-07-23T05:44:21;16.80;99.90
62998;DHT22;55949;52.590;7.330;2022-07-23T05:45:22;17.00;99.90
62998;DHT22;55949;52.590;7.330;2022-07-23T05:46:23;16.90;99.90
62998;DHT22;55949;52.590;7.330;2022-07-23T05:47:24;16.70;99.90
62998;DHT22;55949;52.590;7.330;2022-07-23T05:48:24;16.70;99.90
62998;DHT22;55949;52.590;7.330;2022-07-23T05:49:25;16.80;99.90
62998;DHT22;55949;52.590;7.330;2022-07-23T05:50:26;16.70;99.90
62998;DHT22;55949;52.590;7.330;2022-07-23T05:51:27;16.70;99.90
62998;DHT22;55949;52.590;7.330;2022-07-23T05:52:27;16.70;99.90
62998;DHT22;55949;52.590;7.330;2022-07-23T05:53:28;16.40;99.90
62998;DHT22;55949;52.590;7.330;2022-07-23T05:54:29;16.50;99.90
62998;DHT22;55949;52.590;7.330;2022-07-23T05:55:30;16.50;99.90
62998;DHT22;55949;52.590;7.330;2022-07-23T05:56:31;16.60;99.90
62998;DHT22;55949;52.590;7.330;2022-07-23T05:57:32;16.80;99.90
62998;DHT22;55949;52.590;7.330;2022-07-23T05:58:33;16.90;99.90
62998;DHT22;55949;52.590;7.330;2022-07-23T05:59:34;17.10;99.90
62998;DHT22;55949;52.590;7.330;2022-07-23T06:00:34;16.90;99.90
62998;DHT22;55949;52.590;7.330;2022-07-23T06:01:35;17.00;99.90
62998;DHT22;55949;52.590;7.330;2022-07-23T06:02:37;16.90;99.90
62998;DHT22;55949;52.590;7.330;2022-07-23T06:03:39;16.90;99.90
62998;DHT22;55949;52.590;7.330;2022-07-23T06:04:39;16.90;99.90
62998;DHT22;55949;52.590;7.330;2022-07-23T06:05:40;16.80;99.90
62998;DHT22;55949;52.590;7.330;2022-07-23T06:06:41;16.70;99.90
62998;DHT22;55949;52.590;7.330;2022-07-23T06:07:41;16.50;99.90
62998;DHT22;55949;52.590;7.330;2022-07-23T06:08:42;16.40;99.90
62998;DHT22;55949;52.590;7.330;2022-07-23T06:09:43;16.40;99.90
62998;DHT22;55949;52.590;7.330;2022-07-23T06:10:44;16.40;99.90
62998;DHT22;55949;52.590;7.330;2022-07-23T06:11:44;16.40;99.90
62998;DHT22;55949;52.590;7.330;2022-07-23T06:12:45;16.30;99.90
62998;DHT22;55949;52.590;7.330;2022-07-23T06:13:46;16.20;99.90
62998;DHT22;55949;52.590;7.330;2022-07-23T06:14:47;16.20;99.90
62998;DHT22;55949;52.590;7.330;2022-07-23T06:15:50;16.20;99.90
62998;DHT22;55949;52.590;7.330;2022-07-23T06:16:50;16.30;99.90
62998;DHT22;55949;52.590;7.330;2022-07-23T06:17:51;16.30;99.90
62998;DHT22;55949;52.590;7.330;2022-07-23T06:18:52;16.60;99.90
62998;DHT22;55949;52.590;7.330;2022-07-23T06:19:53;16.70;99.90
62998;DHT22;55949;52.590;7.330;2022-07-23T06:20:54;16.80;99.90
62998;DHT22;55949;52.590;7.330;2022-07-23T06:21:55;17.00;99.90
62998;DHT22;55949;52.590;7.330;2022-07-23T06:22:56;16.80;99.90
62998;DHT22;55949;52.590;7.330;2022-07-23T06:23:57;16.60;99.90
62998;DHT22;55949;52.590;7.330;2022-07-23T06:24:57;16.50;99.90